sensor_id;sensor_type;location;lat;lon;timestamp;temperature;humidity
14682;DHT22;7429;52.498;13.480;2023-04-23T00:02:43;14.50;99.90
14682;DHT22;7429;52.498;13.480;2023-04-23T00:05:51;14.40;99.90
14682;DHT22;7429;52.498;13.480;2023-04-23T00:08:59;14.40;99.90
14682;DHT22;7429;52.498;13.480;2023-04-23T00:12:03;14.30;99.90
14682;DHT22;7429;52.498;13.480;2023-04-23T00:15:12;14.20;99.90
14682;DHT22;7429;52.498;13.480;2023-04-23T00:18:17;14.20;99.90
14682;DHT22;7429;52.498;13.480;2023-04-23T00:21:20;14.10;99.90
14682;DHT22;7429;52.498;13.480;2023-04-23T00:24:25;14.10;99.90
14682;DHT22;7429;52.498;13.480;2023-04-23T00:27:30;14.10;99.90
14682;DHT22;7429;52.498;13.480;2023-04-23T00:30:33;14.00;99.90
14682;DHT22;7429;52.498;13.480;2023-04-23T00:33:41;14.00;99.90
14682;DHT22;7429;52.498;13.480;2023-04-23T00:36:44;14.00;99.90
14682;DHT22;7429;52.498;13.480;2023-04-23T00:39:49;13.90;99.90
14682;DHT22;7429;52.498;13.480;2023-04-23T00:42:52;13.90;99.90
14682;DHT22;7429;52.498;13.480;2023-04-23T00:45:57;13.80;99.90
14682;DHT22;7429;52.498;13.480;2023-04-23T00:49:00;13.90;99.90
14682;DHT22;7429;52.498;13.480;2023-04-23T00:52:04;13.90;99.90
14682;DHT22;7429;52.498;13.480;2023-04-23T00:55:09;14.00;99.90
14682;DHT22;7429;52.498;13.480;2023-04-23T00:58:12;14.00;99.90
14682;DHT22;7429;52.498;13.480;2023-04-23T01:01:15;14.00;99.90
14682;DHT22;7429;52.498;13.480;2023-04-23T01:04:21;13.90;99.90
14682;DHT22;7429;52.498;13.480;2023-04-23T01:07:27;14.00;99.90
14682;DHT22;7429;52.498;13.480;2023-04-23T01:10:31;14.00;99.90
14682;DHT22;7429;52.498;13.480;2023-04-23T01:13:34;14.00;99.90
14682;DHT22;7429;52.498;13.480;2023-04-23T01:16:38;14.00;99.90
14682;DHT22;7429;52.498;13.480;2023-04-23T01:19:43;14.10;99.90
14682;DHT22;7429;52.498;13.480;2023-04-23T01:22:48;14.10;99.90
14682;DHT22;7429;52.498;13.480;2023-04-23T01:25:54;14.10;99.90
14682;DHT22;7429;52.498;13.480;2023-04-23T01:28:58;14.10;99.90
14682;DHT22;7429;52.498;13.480;2023-04-23T01:32:02;14.10;99.90
14682;DHT22;7429;52.498;13.480;2023-04-23T01:35:05;14.10;99.90
14682;DHT22;7429;52.498;13.480;2023-04-23T01:38:12;14.10;99.90
14682;DHT22;7429;52.498;13.480;2023-04-23T01:41:16;14.10;99.90
14682;DHT22;7429;52.498;13.480;2023-04-23T01:44:19;14.10;99.90
14682;DHT22;7429;52.498;13.480;2023-04-23T01:47:23;14.10;99.90
14682;DHT22;7429;52.498;13.480;2023-04-23T01:50:26;14.10;99.90
14682;DHT22;7429;52.498;13.480;2023-04-23T01:53:32;14.10;99.90
14682;DHT22;7429;52.498;13.480;2023-04-23T01:56:35;14.10;99.90
14682;DHT22;7429;52.498;13.480;2023-04-23T01:59:38;14.10;99.90
14682;DHT22;7429;52.498;13.480;2023-04-23T02:02:43;14.10;99.90
14682;DHT22;7429;52.498;13.480;2023-04-23T02:05:47;14.10;99.90
14682;DHT22;7429;52.498;13.480;2023-04-23T02:08:52;14.10;99.90
14682;DHT22;7429;52.498;13.480;2023-04-23T02:11:55;14.10;99.90
14682;DHT22;7429;52.498;13.480;2023-04-23T02:14:59;14.00;99.90
14682;DHT22;7429;52.498;13.480;2023-04-23T02:18:02;14.10;99.90
14682;DHT22;7429;52.498;13.480;2023-04-23T02:21:06;14.00;99.90
14682;DHT22;7429;52.498;13.480;2023-04-23T02:24:10;13.90;99.90
14682;DHT22;7429;52.498;13.480;2023-04-23T02:27:13;13.80;99.90
14682;DHT22;7429;52.498;13.480;2023-04-23T02:30:17;13.60;99.90
14682;DHT22;7429;52.498;13.480;2023-04-23T02:33:20;13.50;99.90
14682;DHT22;7429;52.498;13.480;2023-04-23T02:36:24;13.40;99.90
14682;DHT22;7429;52.498;13.480;2023-04-23T02:39:30;13.30;99.90
14682;DHT22;7429;52.498;13.480;2023-04-23T02:42:34;13.20;99.90
14682;DHT22;7429;52.498;13.480;2023-04-23T02:45:37;13.10;99.90
14682;DHT22;7429;52.498;13.480;2023-04-23T02:48:40;13.00;99.90
14682;DHT22;7429;52.498;13.480;2023-04-23T02:51:43;12.90;99.90
14682;DHT22;7429;52.498;13.480;2023-04-23T02:54:48;12.90;99.90
14682;DHT22;7429;52.498;13.480;2023-04-23T02:57:54;12.80;99.90
14682;DHT22;7429;52.498;13.480;2023-04-23T03:00:58;12.70;99.90
14682;DHT22;7429;52.498;13.480;2023-04-23T03:04:02;12.70;99.90
14682;DHT22;7429;52.498;13.480;2023-04-23T03:07:05;12.70;99.90
14682;DHT22;7429;52.498;13.480;2023-04-23T03:10:11;12.70;99.90
14682;DHT22;7429;52.498;13.480;2023-04-23T03:13:14;12.70;99.90
14682;DHT22;7429;52.498;13.480;2023-04-23T03:16:17;12.70;99.90
14682;DHT22;7429;52.498;13.480;2023-04-23T03:19:20;12.80;99.90
14682;DHT22;7429;52.498;13.480;2023-04-23T03:22:24;12.70;99.90
14682;DHT22;7429;52.498;13.480;2023-04-23T03:25:28;12.60;99.90
14682;DHT22;7429;52.498;13.480;2023-04-23T03:28:32;12.60;99.90
14682;DHT22;7429;52.498;13.480;2023-04-23T03:31:35;12.60;99.90
14682;DHT22;7429;52.498;13.480;2023-04-23T03:34:41;12.50;99.90
14682;DHT22;7429;52.498;13.480;2023-04-23T03:37:45;12.60;99.90
14682;DHT22;7429;52.498;13.480;2023-04-23T03:40:50;12.60;99.90
14682;DHT22;7429;52.498;13.480;2023-04-23T03:43:53;12.60;99.90
14682;DHT22;7429;52.498;13.480;2023-04-23T03:47:16;12.60;99.90
14682;DHT22;7429;52.498;13.480;2023-04-23T03:50:20;12.60;99.90
14682;DHT22;7429;52.498;13.480;2023-04-23T03:53:37;12.70;99.90
14682;DHT22;7429;52.498;13.480;2023-04-23T03:57:00;12.70;99.90
14682;DHT22;7429;52.498;13.480;2023-04-23T04:03:59;12.70;99.90
14682;DHT22;7429;52.498;13.480;2023-04-23T04:07:44;12.80;99.90
14682;DHT22;7429;52.498;13.480;2023-04-23T04:11:38;12.80;99.90
14682;DHT22;7429;52.498;13.480;2023-04-23T04:24:50;12.80;99.90
14682;DHT22;7429;52.498;13.480;2023-04-23T04:29:34;12.80;99.90
14682;DHT22;7429;52.498;13.480;2023-04-23T04:32:51;12.90;99.90
14682;DHT22;7429;52.498;13.480;2023-04-23T04:35:56;12.80;99.90
14682;DHT22;7429;52.498;13.480;2023-04-23T04:39:00;12.70;99.90
14682;DHT22;7429;52.498;13.480;2023-04-23T04:42:04;12.70;99.90
14682;DHT22;7429;52.498;13.480;2023-04-23T04:45:09;12.80;99.90
14682;DHT22;7429;52.498;13.480;2023-04-23T04:48:13;12.90;99.90
14682;DHT22;7429;52.498;13.480;2023-04-23T04:51:17;12.90;99.90
14682;DHT22;7429;52.498;13.480;2023-04-23T04:54:21;13.00;99.90
14682;DHT22;7429;52.498;13.480;2023-04-23T04:57:24;13.00;99.90
14682;DHT22;7429;52.498;13.480;2023-04-23T05:00:30;13.20;99.90
14682;DHT22;7429;52.498;13.480;2023-04-23T05:03:33;13.30;99.90
14682;DHT22;7429;52.498;13.480;2023-04-23T05:06:39;13.30;99.90
14682;DHT22;7429;52.498;13.480;2023-04-23T05:09:42;13.40;99.90
14682;DHT22;7429;52.498;13.480;2023-04-23T05:12:46;13.40;99.90
14682;DHT22;7429;52.498;13.480;2023-04-23T05:15:49;13.40;99.90
14682;DHT22;7429;52.498;13.480;2023-04-23T05:18:52;13.50;99.90
14682;DHT22;7429;52.498;13.480;2023-04-23T05:21:57;13.50;99.90
14682;DHT22;7429;52.498;13.480;2023-04-23T05:25:00;13.60;99.90
14682;DHT22;7429;52.498;13.480;2023-04-23T05:28:04;13.70;99.90
14682;DHT22;7429;52.498;13.480;2023-04-23T05:31:09;13.70;99.90
14682;DHT22;7429;52.498;13.480;2023-04-23T05:34:12;13.80;99.90
14682;DHT22;7429;52.498;13.480;2023-04-23T05:37:16;13.90;99.90
14682;DHT22;7429;52.498;13.480;2023-04-23T05:40:20;13.90;99.90
14682;DHT22;7429;52.498;13.480;2023-04-23T05:43:23;13.90;99.90
14682;DHT22;7429;52.498;13.480;2023-04-23T05:46:29;13.90;99.90
14682;DHT22;7429;52.498;13.480;2023-04-23T05:49:32;14.00;99.90
14682;DHT22;7429;52.498;13.480;2023-04-23T05:52:36;14.10;99.90
14682;DHT22;7429;52.498;13.480;2023-04-23T05:55:40;14.10;99.90
14682;DHT22;7429;52.498;13.480;2023-04-23T05:58:43;14.20;99.90
14682;DHT22;7429;52.498;13.480;2023-04-23T06:01:47;14.20;99.90
14682;DHT22;7429;52.498;13.480;2023-04-23T06:04:50;14.40;99.90
14682;DHT22;7429;52.498;13.480;2023-04-23T06:07:55;14.40;99.90
14682;DHT22;7429;52.498;13.480;2023-04-23T06:10:58;14.50;99.90
14682;DHT22;7429;52.498;13.480;2023-04-23T06:14:25;14.60;99.90
14682;DHT22;7429;52.498;13.480;2023-04-23T06:17:28;14.60;99.90
14682;DHT22;7429;52.498;13.480;2023-04-23T06:20:31;14.70;99.90
14682;DHT22;7429;52.498;13.480;2023-04-23T06:23:35;14.70;99.90
14682;DHT22;7429;52.498;13.480;2023-04-23T06:26:38;14.80;99.90
14682;DHT22;7429;52.498;13.480;2023-04-23T06:29:50;14.80;99.90
14682;DHT22;7429;52.498;13.480;2023-04-23T06:32:53;14.80;99.90
14682;DHT22;7429;52.498;13.480;2023-04-23T06:35:56;14.90;99.90
14682;DHT22;7429;52.498;13.480;2023-04-23T06:39:00;15.00;99.90
14682;DHT22;7429;52.498;13.480;2023-04-23T06:42:04;15.10;99.90
14682;DHT22;7429;52.498;13.480;2023-04-23T06:45:17;15.10;99.90
14682;DHT22;7429;52.498;13.480;2023-04-23T06:48:20;15.10;99.90
14682;DHT22;7429;52.498;13.480;2023-04-23T06:51:26;15.20;99.90
14682;DHT22;7429;52.498;13.480;2023-04-23T06:54:33;15.20;99.90
14682;DHT22;7429;52.498;13.480;2023-04-23T06:57:40;15.20;99.90
14682;DHT22;7429;52.498;13.480;2023-04-23T07:00:47;15.30;99.90
14682;DHT22;7429;52.498;13.480;2023-04-23T07:03:53;15.40;99.90
14682;DHT22;7429;52.498;13.480;2023-04-23T07:06:57;15.40;99.90
14682;DHT22;7429;52.498;13.480;2023-04-23T07:10:07;15.50;99.90
14682;DHT22;7429;52.498;13.480;2023-04-23T07:13:19;15.40;99.90
14682;DHT22;7429;52.498;13.480;2023-04-23T07:16:25;15.40;99.90
14682;DHT22;7429;52.498;13.480;2023-04-23T07:19:39;15.40;99.90
14682;DHT22;7429;52.498;13.480;2023-04-23T07:22:45;15.30;99.90
14682;DHT22;7429;52.498;13.480;2023-04-23T07:25:50;15.20;99.90
14682;DHT22;7429;52.498;13.480;2023-04-23T07:28:53;15.00;99.90
14682;DHT22;7429;52.498;13.480;2023-04-23T07:31:57;14.90;99.90
14682;DHT22;7429;52.498;13.480;2023-04-23T07:35:00;14.90;99.90
14682;DHT22;7429;52.498;13.480;2023-04-23T07:38:03;14.80;99.90
14682;DHT22;7429;52.498;13.480;2023-04-23T07:41:08;14.80;99.90
14682;DHT22;7429;52.498;13.480;2023-04-23T07:44:11;14.70;99.90
14682;DHT22;7429;52.498;13.480;2023-04-23T07:47:14;14.60;99.90
14682;DHT22;7429;52.498;13.480;2023-04-23T07:50:26;14.60;99.90
14682;DHT22;7429;52.498;13.480;2023-04-23T07:53:31;14.50;99.90
14682;DHT22;7429;52.498;13.480;2023-04-23T07:56:41;14.50;99.90
14682;DHT22;7429;52.498;13.480;2023-04-23T07:59:44;14.60;99.90
14682;DHT22;7429;52.498;13.480;2023-04-23T08:02:48;14.60;99.90
14682;DHT22;7429;52.498;13.480;2023-04-23T08:06:04;14.60;99.90
14682;DHT22;7429;52.498;13.480;2023-04-23T08:09:16;14.60;99.90
14682;DHT22;7429;52.498;13.480;2023-04-23T08:12:21;14.70;99.90
14682;DHT22;7429;52.498;13.480;2023-04-23T08:15:27;14.70;99.90
14682;DHT22;7429;52.498;13.480;2023-04-23T08:18:31;14.70;99.90
14682;DHT22;7429;52.498;13.480;2023-04-23T08:21:36;14.80;99.90
14682;DHT22;7429;52.498;13.480;2023-04-23T08:24:39;14.80;99.90
14682;DHT22;7429;52.498;13.480;2023-04-23T08:27:44;14.80;99.90
14682;DHT22;7429;52.498;13.480;2023-04-23T08:30:47;14.80;99.90
14682;DHT22;7429;52.498;13.480;2023-04-23T08:33:50;14.80;99.90
14682;DHT22;7429;52.498;13.480;2023-04-23T08:36:54;14.80;99.90
14682;DHT22;7429;52.498;13.480;2023-04-23T08:39:57;14.80;99.90
14682;DHT22;7429;52.498;13.480;2023-04-23T08:43:08;14.90;99.90
14682;DHT22;7429;52.498;13.480;2023-04-23T08:46:14;14.90;99.90
14682;DHT22;7429;52.498;13.480;2023-04-23T08:49:19;15.00;99.90
14682;DHT22;7429;52.498;13.480;2023-04-23T08:52:24;15.00;99.90
14682;DHT22;7429;52.498;13.480;2023-04-23T08:55:28;15.10;99.90
14682;DHT22;7429;52.498;13.480;2023-04-23T08:58:42;15.30;99.90
14682;DHT22;7429;52.498;13.480;2023-04-23T09:01:45;15.40;99.90
14682;DHT22;7429;52.498;13.480;2023-04-23T09:04:49;15.50;99.90
14682;DHT22;7429;52.498;13.480;2023-04-23T09:07:57;15.60;99.90
14682;DHT22;7429;52.498;13.480;2023-04-23T09:11:01;15.60;99.90
14682;DHT22;7429;52.498;13.480;2023-04-23T09:14:08;15.60;99.90
14682;DHT22;7429;52.498;13.480;2023-04-23T09:17:12;15.50;99.90
14682;DHT22;7429;52.498;13.480;2023-04-23T09:20:15;15.50;99.90
14682;DHT22;7429;52.498;13.480;2023-04-23T09:23:20;15.40;99.90
14682;DHT22;7429;52.498;13.480;2023-04-23T09:26:27;15.40;99.90
14682;DHT22;7429;52.498;13.480;2023-04-23T09:29:31;15.40;99.90
14682;DHT22;7429;52.498;13.480;2023-04-23T09:32:35;15.30;99.90
14682;DHT22;7429;52.498;13.480;2023-04-23T09:35:40;15.30;99.90
14682;DHT22;7429;52.498;13.480;2023-04-23T09:38:45;15.20;99.90
14682;DHT22;7429;52.498;13.480;2023-04-23T09:41:52;15.10;99.90
14682;DHT22;7429;52.498;13.480;2023-04-23T09:44:58;15.00;99.90
14682;DHT22;7429;52.498;13.480;2023-04-23T09:48:06;14.80;99.90
14682;DHT22;7429;52.498;13.480;2023-04-23T09:51:12;14.70;99.90
14682;DHT22;7429;52.498;13.480;2023-04-23T09:54:17;14.50;99.90
14682;DHT22;7429;52.498;13.480;2023-04-23T09:57:23;14.30;99.90
14682;DHT22;7429;52.498;13.480;2023-04-23T10:00:32;14.20;99.90
14682;DHT22;7429;52.498;13.480;2023-04-23T10:03:36;14.00;99.90
14682;DHT22;7429;52.498;13.480;2023-04-23T10:06:44;13.90;99.90
14682;DHT22;7429;52.498;13.480;2023-04-23T10:10:08;13.80;99.90
14682;DHT22;7429;52.498;13.480;2023-04-23T10:13:12;13.80;99.90
14682;DHT22;7429;52.498;13.480;2023-04-23T10:16:20;13.90;99.90
14682;DHT22;7429;52.498;13.480;2023-04-23T10:19:31;13.80;99.90
14682;DHT22;7429;52.498;13.480;2023-04-23T10:22:52;13.80;99.90
14682;DHT22;7429;52.498;13.480;2023-04-23T10:26:00;13.80;99.90
14682;DHT22;7429;52.498;13.480;2023-04-23T10:29:12;13.70;99.90
14682;DHT22;7429;52.498;13.480;2023-04-23T10:32:19;13.60;99.90
14682;DHT22;7429;52.498;13.480;2023-04-23T10:35:25;13.50;99.90
14682;DHT22;7429;52.498;13.480;2023-04-23T10:38:28;13.60;99.90
14682;DHT22;7429;52.498;13.480;2023-04-23T10:41:40;13.60;99.90
14682;DHT22;7429;52.498;13.480;2023-04-23T10:44:45;13.70;99.90
14682;DHT22;7429;52.498;13.480;2023-04-23T10:48:01;13.90;99.90
14682;DHT22;7429;52.498;13.480;2023-04-23T10:51:05;14.20;99.90
14682;DHT22;7429;52.498;13.480;2023-04-23T10:54:29;14.10;99.90
14682;DHT22;7429;52.498;13.480;2023-04-23T10:57:54;14.20;99.90
14682;DHT22;7429;52.498;13.480;2023-04-23T11:01:04;14.30;99.90
14682;DHT22;7429;52.498;13.480;2023-04-23T11:04:22;14.30;99.90
14682;DHT22;7429;52.498;13.480;2023-04-23T11:07:31;14.40;99.90
14682;DHT22;7429;52.498;13.480;2023-04-23T11:10:52;14.50;99.90
14682;DHT22;7429;52.498;13.480;2023-04-23T11:13:57;14.60;99.90
14682;DHT22;7429;52.498;13.480;2023-04-23T11:17:16;14.70;99.90
14682;DHT22;7429;52.498;13.480;2023-04-23T11:20:22;14.80;99.90
14682;DHT22;7429;52.498;13.480;2023-04-23T11:23:29;14.90;99.90
14682;DHT22;7429;52.498;13.480;2023-04-23T11:26:35;14.80;99.90
14682;DHT22;7429;52.498;13.480;2023-04-23T11:29:40;14.80;99.90
14682;DHT22;7429;52.498;13.480;2023-04-23T11:32:46;14.80;99.90
14682;DHT22;7429;52.498;13.480;2023-04-23T11:35:51;14.90;99.90
14682;DHT22;7429;52.498;13.480;2023-04-23T11:38:55;15.10;99.90
14682;DHT22;7429;52.498;13.480;2023-04-23T11:41:59;15.10;99.90
14682;DHT22;7429;52.498;13.480;2023-04-23T11:45:13;15.20;99.90
14682;DHT22;7429;52.498;13.480;2023-04-23T11:48:17;15.20;99.90
14682;DHT22;7429;52.498;13.480;2023-04-23T11:51:24;15.40;99.90
14682;DHT22;7429;52.498;13.480;2023-04-23T11:54:27;15.40;99.90
14682;DHT22;7429;52.498;13.480;2023-04-23T11:57:52;15.30;99.90
14682;DHT22;7429;52.498;13.480;2023-04-23T12:06:33;16.20;99.90
14682;DHT22;7429;52.498;13.480;2023-04-23T12:10:59;16.50;99.90
14682;DHT22;7429;52.498;13.480;2023-04-23T12:14:03;16.80;99.90
14682;DHT22;7429;52.498;13.480;2023-04-23T12:17:10;17.00;99.90
14682;DHT22;7429;52.498;13.480;2023-04-23T12:20:18;17.20;99.90
14682;DHT22;7429;52.498;13.480;2023-04-23T12:23:26;17.20;99.90
14682;DHT22;7429;52.498;13.480;2023-04-23T12:26:29;16.90;99.90
14682;DHT22;7429;52.498;13.480;2023-04-23T12:29:34;16.70;99.90
14682;DHT22;7429;52.498;13.480;2023-04-23T12:32:37;16.60;99.90
14682;DHT22;7429;52.498;13.480;2023-04-23T12:35:41;16.70;99.90
14682;DHT22;7429;52.498;13.480;2023-04-23T12:38:46;16.70;99.90
14682;DHT22;7429;52.498;13.480;2023-04-23T12:41:51;16.70;99.90
14682;DHT22;7429;52.498;13.480;2023-04-23T12:45:04;16.80;99.90
14682;DHT22;7429;52.498;13.480;2023-04-23T12:48:08;17.40;99.90
14682;DHT22;7429;52.498;13.480;2023-04-23T12:51:11;17.90;99.90
14682;DHT22;7429;52.498;13.480;2023-04-23T12:54:16;18.50;99.90
14682;DHT22;7429;52.498;13.480;2023-04-23T12:57:19;19.00;99.90
14682;DHT22;7429;52.498;13.480;2023-04-23T13:00:24;19.30;99.90
14682;DHT22;7429;52.498;13.480;2023-04-23T13:03:28;19.40;99.90
14682;DHT22;7429;52.498;13.480;2023-04-23T13:06:31;19.70;99.90
14682;DHT22;7429;52.498;13.480;2023-04-23T13:09:38;19.80;99.90
14682;DHT22;7429;52.498;13.480;2023-04-23T13:12:43;20.00;99.90
14682;DHT22;7429;52.498;13.480;2023-04-23T13:15:49;19.90;99.90
14682;DHT22;7429;52.498;13.480;2023-04-23T13:18:54;19.90;99.90
14682;DHT22;7429;52.498;13.480;2023-04-23T13:21:57;19.90;99.90
14682;DHT22;7429;52.498;13.480;2023-04-23T13:25:05;19.90;99.90
14682;DHT22;7429;52.498;13.480;2023-04-23T13:28:09;20.20;99.90
14682;DHT22;7429;52.498;13.480;2023-04-23T13:31:13;20.20;99.90
14682;DHT22;7429;52.498;13.480;2023-04-23T13:34:16;20.30;99.90
14682;DHT22;7429;52.498;13.480;2023-04-23T13:37:19;20.40;99.90
14682;DHT22;7429;52.498;13.480;2023-04-23T13:40:25;20.80;99.90
14682;DHT22;7429;52.498;13.480;2023-04-23T13:43:29;20.80;99.90
14682;DHT22;7429;52.498;13.480;2023-04-23T13:46:32;20.60;99.90
14682;DHT22;7429;52.498;13.480;2023-04-23T13:49:38;20.40;99.90
14682;DHT22;7429;52.498;13.480;2023-04-23T13:52:51;20.60;99.90
14682;DHT22;7429;52.498;13.480;2023-04-23T13:55:57;20.60;99.90
14682;DHT22;7429;52.498;13.480;2023-04-23T13:59:01;20.80;99.90
14682;DHT22;7429;52.498;13.480;2023-04-23T14:02:07;21.10;99.90
14682;DHT22;7429;52.498;13.480;2023-04-23T14:05:10;21.40;99.90
14682;DHT22;7429;52.498;13.480;2023-04-23T14:08:13;21.60;99.90
14682;DHT22;7429;52.498;13.480;2023-04-23T14:11:18;21.60;99.90
14682;DHT22;7429;52.498;13.480;2023-04-23T14:14:21;20.90;99.90
14682;DHT22;7429;52.498;13.480;2023-04-23T14:17:24;20.60;99.90
14682;DHT22;7429;52.498;13.480;2023-04-23T14:20:30;20.80;99.90
14682;DHT22;7429;52.498;13.480;2023-04-23T14:23:47;21.00;99.90
14682;DHT22;7429;52.498;13.480;2023-04-23T14:26:53;21.30;99.90
14682;DHT22;7429;52.498;13.480;2023-04-23T14:30:01;21.70;99.90
14682;DHT22;7429;52.498;13.480;2023-04-23T14:33:09;22.10;99.90
14682;DHT22;7429;52.498;13.480;2023-04-23T14:36:13;21.60;99.90
14682;DHT22;7429;52.498;13.480;2023-04-23T14:39:16;21.60;99.90
14682;DHT22;7429;52.498;13.480;2023-04-23T14:42:20;21.80;99.90
14682;DHT22;7429;52.498;13.480;2023-04-23T14:45:23;21.80;99.90
14682;DHT22;7429;52.498;13.480;2023-04-23T14:48:26;21.60;99.90
14682;DHT22;7429;52.498;13.480;2023-04-23T14:51:30;21.40;99.90
14682;DHT22;7429;52.498;13.480;2023-04-23T14:54:33;21.30;99.90
14682;DHT22;7429;52.498;13.480;2023-04-23T14:57:38;21.60;99.90
14682;DHT22;7429;52.498;13.480;2023-04-23T15:00:41;21.80;99.90
14682;DHT22;7429;52.498;13.480;2023-04-23T15:03:44;21.50;99.90
14682;DHT22;7429;52.498;13.480;2023-04-23T15:06:48;21.20;99.90
14682;DHT22;7429;52.498;13.480;2023-04-23T15:09:53;21.20;99.90
14682;DHT22;7429;52.498;13.480;2023-04-23T15:13:06;21.20;99.90
14682;DHT22;7429;52.498;13.480;2023-04-23T15:16:24;20.90;99.90
14682;DHT22;7429;52.498;13.480;2023-04-23T15:19:48;20.80;99.90
14682;DHT22;7429;52.498;13.480;2023-04-23T15:22:55;20.80;99.90
14682;DHT22;7429;52.498;13.480;2023-04-23T15:26:03;20.50;99.90
14682;DHT22;7429;52.498;13.480;2023-04-23T15:29:07;20.00;99.90
14682;DHT22;7429;52.498;13.480;2023-04-23T15:32:11;19.70;99.90
14682;DHT22;7429;52.498;13.480;2023-04-23T15:35:14;19.70;99.90
14682;DHT22;7429;52.498;13.480;2023-04-23T15:38:17;19.90;99.90
14682;DHT22;7429;52.498;13.480;2023-04-23T15:41:20;20.30;99.90
14682;DHT22;7429;52.498;13.480;2023-04-23T15:44:25;20.70;99.90
14682;DHT22;7429;52.498;13.480;2023-04-23T15:47:28;20.50;99.90
14682;DHT22;7429;52.498;13.480;2023-04-23T15:50:31;20.40;99.90
14682;DHT22;7429;52.498;13.480;2023-04-23T15:53:34;20.40;99.90
14682;DHT22;7429;52.498;13.480;2023-04-23T15:56:37;20.30;99.90
14682;DHT22;7429;52.498;13.480;2023-04-23T15:59:43;20.30;99.90
14682;DHT22;7429;52.498;13.480;2023-04-23T16:02:46;20.30;99.90
14682;DHT22;7429;52.498;13.480;2023-04-23T16:05:50;20.10;99.90
14682;DHT22;7429;52.498;13.480;2023-04-23T16:08:53;19.90;99.90
14682;DHT22;7429;52.498;13.480;2023-04-23T16:11:56;19.70;99.90
14682;DHT22;7429;52.498;13.480;2023-04-23T16:15:01;19.60;99.90
14682;DHT22;7429;52.498;13.480;2023-04-23T16:18:04;19.50;99.90
14682;DHT22;7429;52.498;13.480;2023-04-23T16:21:07;19.50;99.90
14682;DHT22;7429;52.498;13.480;2023-04-23T16:24:10;19.30;99.90
14682;DHT22;7429;52.498;13.480;2023-04-23T16:27:13;19.10;99.90
14682;DHT22;7429;52.498;13.480;2023-04-23T16:30:18;19.10;99.90
14682;DHT22;7429;52.498;13.480;2023-04-23T16:33:22;19.10;99.90
14682;DHT22;7429;52.498;13.480;2023-04-23T16:36:26;19.00;99.90
14682;DHT22;7429;52.498;13.480;2023-04-23T16:39:30;19.00;99.90
14682;DHT22;7429;52.498;13.480;2023-04-23T16:42:33;18.90;99.90
14682;DHT22;7429;52.498;13.480;2023-04-23T16:45:38;18.80;99.90
14682;DHT22;7429;52.498;13.480;2023-04-23T16:48:44;18.70;99.90
14682;DHT22;7429;52.498;13.480;2023-04-23T16:51:49;18.40;99.90
14682;DHT22;7429;52.498;13.480;2023-04-23T16:54:52;18.20;99.90
14682;DHT22;7429;52.498;13.480;2023-04-23T16:57:55;18.20;99.90
14682;DHT22;7429;52.498;13.480;2023-04-23T17:00:59;18.20;99.90
14682;DHT22;7429;52.498;13.480;2023-04-23T17:04:04;18.20;99.90
14682;DHT22;7429;52.498;13.480;2023-04-23T17:07:08;18.20;99.90
14682;DHT22;7429;52.498;13.480;2023-04-23T17:10:11;18.20;99.90
14682;DHT22;7429;52.498;13.480;2023-04-23T17:13:16;18.20;99.90
14682;DHT22;7429;52.498;13.480;2023-04-23T17:16:20;18.10;99.90
14682;DHT22;7429;52.498;13.480;2023-04-23T17:19:25;17.90;99.90
14682;DHT22;7429;52.498;13.480;2023-04-23T17:22:29;17.80;99.90
14682;DHT22;7429;52.498;13.480;2023-04-23T17:25:32;17.70;99.90
14682;DHT22;7429;52.498;13.480;2023-04-23T17:28:35;17.60;99.90
14682;DHT22;7429;52.498;13.480;2023-04-23T17:31:43;17.60;99.90
14682;DHT22;7429;52.498;13.480;2023-04-23T17:34:46;17.50;99.90
14682;DHT22;7429;52.498;13.480;2023-04-23T17:38:03;17.40;99.90
14682;DHT22;7429;52.498;13.480;2023-04-23T17:41:06;17.30;99.90
14682;DHT22;7429;52.498;13.480;2023-04-23T17:44:10;17.30;99.90
14682;DHT22;7429;52.498;13.480;2023-04-23T17:47:14;17.20;99.90
14682;DHT22;7429;52.498;13.480;2023-04-23T17:50:17;17.00;99.90
14682;DHT22;7429;52.498;13.480;2023-04-23T17:53:20;17.00;99.90
14682;DHT22;7429;52.498;13.480;2023-04-23T17:56:23;16.90;99.90
14682;DHT22;7429;52.498;13.480;2023-04-23T17:59:28;17.00;99.90
14682;DHT22;7429;52.498;13.480;2023-04-23T18:02:34;16.90;99.90
14682;DHT22;7429;52.498;13.480;2023-04-23T18:05:41;16.80;99.90
14682;DHT22;7429;52.498;13.480;2023-04-23T18:08:44;16.70;99.90
14682;DHT22;7429;52.498;13.480;2023-04-23T18:11:47;16.70;99.90
14682;DHT22;7429;52.498;13.480;2023-04-23T18:14:52;16.70;99.90
14682;DHT22;7429;52.498;13.480;2023-04-23T18:17:57;16.50;99.90
14682;DHT22;7429;52.498;13.480;2023-04-23T18:21:00;16.50;99.90
14682;DHT22;7429;52.498;13.480;2023-04-23T18:24:06;16.40;99.90
14682;DHT22;7429;52.498;13.480;2023-04-23T18:27:10;16.30;99.90
14682;DHT22;7429;52.498;13.480;2023-04-23T18:30:13;16.20;99.90
14682;DHT22;7429;52.498;13.480;2023-04-23T18:33:30;16.10;99.90
14682;DHT22;7429;52.498;13.480;2023-04-23T18:36:36;16.00;99.90
14682;DHT22;7429;52.498;13.480;2023-04-23T18:39:39;15.90;99.90
14682;DHT22;7429;52.498;13.480;2023-04-23T18:42:42;15.70;99.90
14682;DHT22;7429;52.498;13.480;2023-04-23T18:45:45;15.60;99.90
14682;DHT22;7429;52.498;13.480;2023-04-23T18:48:57;15.50;99.90
14682;DHT22;7429;52.498;13.480;2023-04-23T18:52:01;15.50;99.90
14682;DHT22;7429;52.498;13.480;2023-04-23T18:55:05;15.40;99.90
14682;DHT22;7429;52.498;13.480;2023-04-23T18:58:08;15.20;99.90
14682;DHT22;7429;52.498;13.480;2023-04-23T19:01:12;15.20;99.90
14682;DHT22;7429;52.498;13.480;2023-04-23T19:04:16;15.00;99.90
14682;DHT22;7429;52.498;13.480;2023-04-23T19:07:20;14.90;99.90
14682;DHT22;7429;52.498;13.480;2023-04-23T19:10:23;14.80;99.90
14682;DHT22;7429;52.498;13.480;2023-04-23T19:13:26;14.80;99.90
14682;DHT22;7429;52.498;13.480;2023-04-23T19:16:30;14.70;99.90
14682;DHT22;7429;52.498;13.480;2023-04-23T19:19:34;14.70;99.90
14682;DHT22;7429;52.498;13.480;2023-04-23T19:22:38;14.60;99.90
14682;DHT22;7429;52.498;13.480;2023-04-23T19:25:43;14.50;99.90
14682;DHT22;7429;52.498;13.480;2023-04-23T19:28:46;14.40;99.90
14682;DHT22;7429;52.498;13.480;2023-04-23T19:31:49;14.30;99.90
14682;DHT22;7429;52.498;13.480;2023-04-23T19:34:53;14.30;99.90
14682;DHT22;7429;52.498;13.480;2023-04-23T19:37:57;14.20;99.90
14682;DHT22;7429;52.498;13.480;2023-04-23T19:41:00;14.10;99.90
14682;DHT22;7429;52.498;13.480;2023-04-23T19:44:03;14.00;99.90
14682;DHT22;7429;52.498;13.480;2023-04-23T19:47:06;13.90;99.90
14682;DHT22;7429;52.498;13.480;2023-04-23T19:50:11;13.80;99.90
14682;DHT22;7429;52.498;13.480;2023-04-23T19:53:14;13.80;99.90
14682;DHT22;7429;52.498;13.480;2023-04-23T19:56:17;13.70;99.90